EDT,Max TemperatureF,Mean TemperatureF,Min TemperatureF,Max Dew PointF,MeanDew PointF,Min DewpointF,Max Humidity, Mean Humidity, Min Humidity, Max Sea Level PressureIn, Mean Sea Level PressureIn, Min Sea Level PressureIn, Max VisibilityMiles, Mean VisibilityMiles, Min VisibilityMiles, Max Wind SpeedMPH, Mean Wind SpeedMPH, Max Gust SpeedMPH,PrecipitationIn, CloudCover, Events, WindDirDegrees
2014-7-1,97,86,77,75,73,65,94,72,37,29.98,29.94,29.89,10,10,8,18,8,26,0.00,2,,21
2014-7-2,88,81,75,78,74,71,90,82,59,29.95,29.93,29.90,10,9,2,17,6,29,0.19,4,Rain-Thunderstorm,319
2014-7-3,95,82,73,77,73,71,94,81,52,30.12,30.03,29.95,10,9,2,18,7,28,0.14,3,Rain-Thunderstorm,259
2014-7-4,90,81,73,77,73,71,94,79,59,30.13,30.10,30.05,10,10,10,12,6,,0.00,2,Thunderstorm,215
2014-7-5,91,82,73,77,72,71,94,82,54,30.17,30.11,30.07,10,9,1,17,6,26,1.44,3,Rain-Thunderstorm,145
2014-7-6,89,81,73,76,73,70,94,85,63,30.12,30.08,30.05,10,10,9,13,7,,0.04,3,Rain-Thunderstorm,147
2014-7-7,89,80,73,75,73,71,91,80,61,30.15,30.09,30.06,10,10,4,8,5,,0.01,1,Rain,191
2014-7-8,91,82,73,75,73,68,94,80,52,30.17,30.13,30.08,10,8,1,18,6,30,0.41,3,Rain-Thunderstorm,206
2014-7-9,88,82,75,76,74,72,91,82,65,30.15,30.12,30.07,10,10,5,9,5,,0.09,2,Rain-Thunderstorm,203
2014-7-10,93,83,73,75,73,70,93,80,50,30.15,30.11,30.08,10,9,2,16,6,22,0.61,3,Rain-Thunderstorm,168
2014-7-11,91,82,73,75,72,69,94,81,54,30.18,30.14,30.08,10,8,0,24,7,32,1.32,3,Fog-Rain-Thunderstorm,154
2014-7-12,93,84,75,76,73,67,94,80,42,30.17,30.14,30.11,10,10,10,15,3,21,0.02,2,Thunderstorm,91
2014-7-13,91,82,75,76,73,69,94,81,53,30.15,30.11,30.08,10,10,10,16,4,,0.00,1,,109
2014-7-14,91,84,77,77,74,68,90,80,54,30.12,30.08,30.03,10,10,6,13,5,26,0.00,1,Rain-Thunderstorm,163
2014-7-15,89,82,75,77,74,71,94,83,65,30.05,30.00,29.96,10,9,1,14,7,29,0.33,3,Rain-Thunderstorm,199
2014-7-16,82,78,73,76,74,71,94,88,79,30.01,29.96,29.91,10,8,1,16,10,25,0.49,3,Rain-Thunderstorm,221
2014-7-17,91,82,75,75,73,70,94,75,52,30.04,29.98,29.92,10,10,10,9,6,,0.00,2,Thunderstorm,244
2014-7-18,93,84,75,75,71,65,94,70,39,30.11,30.06,30.02,10,9,5,13,3,,0.00,0,,106
2014-7-19,93,86,79,76,74,70,90,72,47,30.10,30.07,30.03,10,10,9,8,6,,0.00,0,,177
2014-7-20,93,86,78,77,74,72,90,69,49,30.10,30.05,30.02,10,10,8,13,6,,0.00,2,Thunderstorm,205
2014-7-21,93,85,77,76,73,68,90,76,44,30.10,30.07,30.00,10,10,2,21,6,28,0.14,2,Rain-Thunderstorm,166
2014-7-22,93,82,73,75,73,69,94,80,47,30.09,30.06,30.02,10,8,1,21,5,30,0.44,2,Rain-Thunderstorm,107
2014-7-23,91,83,75,78,74,71,94,77,50,30.10,30.06,30.01,10,9,1,9,3,,0.02,1,Rain-Thunderstorm,209
2014-7-24,91,85,79,76,74,71,90,72,52,30.07,30.03,29.99,10,10,10,13,4,,0.00,2,,264
2014-7-25,91,84,78,77,75,70,90,80,59,30.10,30.06,30.02,10,9,0,14,5,21,0.42,2,Fog-Rain-Thunderstorm,226
2014-7-26,91,84,77,78,75,72,94,76,55,30.12,30.08,30.04,10,10,10,13,5,,0.00,0,Thunderstorm,241
2014-7-27,91,85,79,77,75,73,90,74,57,30.11,30.08,30.04,10,10,10,13,5,,0.00,1,Thunderstorm,252
2014-7-28,91,85,79,77,76,74,90,75,55,30.07,30.03,29.96,10,10,8,15,7,23,0.01,2,Rain-Thunderstorm,250
2014-7-29,91,84,77,78,76,73,90,78,59,30.00,29.95,29.91,10,9,0,16,8,28,0.26,2,Fog-Rain-Thunderstorm,244
2014-7-30,93,84,75,76,66,61,87,58,35,30.01,29.97,29.94,10,10,10,8,5,,0.00,0,,311
2014-7-31,93,83,73,75,70,66,79,66,47,30.01,29.98,29.94,10,10,10,6,4,,0.00,3,,294